Time;durP1;ratioP1;P1;durP2;ratioP2;P2;SDS_P1;SDS_P2;PMS_P1;PMS_P2;Temp;Humidity;BMP_temperature;BMP_pressure;BME280_temperature;BME280_humidity;BME280_pressure;Samples;Min_cycle;Max_cycle;Signal;HPM_P1;HPM_P2
2023/03/03 00:01:09;;;;;;;65.47;26.98;;;;;;;;;;5029641;28;20506;-78
2023/03/03 00:03:35;;;;;;;72.47;26.23;;;;;;;;;;5023586;28;20389;-79
2023/03/03 00:06:03;;;;;;;64.30;27.55;;;;;;;;;;5030702;28;20037;-79
2023/03/03 00:08:28;;;;;;;69.63;27.77;;;;;;;;;;5031951;28;20036;-79
2023/03/03 00:10:54;;;;;;;65.00;26.33;;;;;;;;;;5024082;28;20025;-79
2023/03/03 00:13:24;;;;;;;66.15;27.08;;;;;;;;;;5013378;28;20523;-79
2023/03/03 00:15:51;;;;;;;62.33;25.50;;;;;;;;;;5031013;28;20034;-79
2023/03/03 00:18:29;;;;;;;61.10;26.15;;;;;;;;;;5026302;28;20559;-78
2023/03/03 00:20:57;;;;;;;61.78;25.73;;;;;;;;;;5022347;28;20040;-78
2023/03/03 00:23:27;;;;;;;65.13;26.52;;;;;;;;;;5031812;28;20033;-79
2023/03/03 00:25:58;;;;;;;63.30;26.67;;;;;;;;;;5037629;28;20469;-79
2023/03/03 00:28:56;;;;;;;58.53;24.15;;;;;;;;;;5031473;28;20029;-81
2023/03/03 00:31:39;;;;;;;56.40;23.70;;;;;;;;;;5042670;28;20052;-81
2023/03/03 00:34:17;;;;;;;59.90;24.98;;;;;;;;;;5033241;28;20052;-79
2023/03/03 00:36:43;;;;;;;55.13;23.90;;;;;;;;;;5022093;28;20025;-81
2023/03/03 00:39:17;;;;;;;65.00;25.15;;;;;;;;;;5021786;28;20025;-80
2023/03/03 00:41:42;;;;;;;55.20;23.88;;;;;;;;;;5031921;28;20025;-79
2023/03/03 00:44:30;;;;;;;55.63;23.77;;;;;;;;;;5031189;28;20452;-79
2023/03/03 00:46:57;;;;;;;55.38;23.38;;;;;;;;;;5033320;28;20025;-78
2023/03/03 00:49:26;;;;;;;55.15;23.45;;;;;;;;;;5034178;28;20755;-80
2023/03/03 00:51:54;;;;;;;58.47;24.17;;;;;;;;;;5025099;28;20479;-78
2023/03/03 00:54:19;;;;;;;59.67;24.45;;;;;;;;;;5017981;28;20017;-78
2023/03/03 00:56:45;;;;;;;57.47;23.38;;;;;;;;;;5031470;28;20107;-80
2023/03/03 00:59:10;;;;;;;60.00;24.23;;;;;;;;;;5038219;28;20424;-79
2023/03/03 01:01:36;;;;;;;52.40;23.60;;;;;;;;;;5031752;28;20026;-80
2023/03/03 01:04:01;;;;;;;52.90;23.17;;;;;;;;;;5032359;28;20026;-80
2023/03/03 01:06:27;;;;;;;54.72;23.42;;;;;;;;;;5027697;28;20727;-81
2023/03/03 01:08:53;;;;;;;50.17;22.25;;;;;;;;;;5029112;28;20033;-79
2023/03/03 01:11:24;;;;;;;53.88;23.90;;;;;;;;;;5031826;28;20029;-79
2023/03/03 01:13:51;;;;;;;53.38;23.10;;;;;;;;;;5031627;28;20131;-80
2023/03/03 01:16:17;;;;;;;48.67;21.50;;;;;;;;;;5032982;28;20022;-78
2023/03/03 01:18:42;;;;;;;49.72;21.58;;;;;;;;;;5031238;28;20523;-81
2023/03/03 01:21:09;;;;;;;52.50;22.83;;;;;;;;;;5032471;28;20030;-80
2023/03/03 01:23:34;;;;;;;55.83;23.05;;;;;;;;;;5032536;28;20063;-78
2023/03/03 01:26:00;;;;;;;53.35;21.75;;;;;;;;;;5030981;28;20061;-79
2023/03/03 01:28:26;;;;;;;55.83;23.83;;;;;;;;;;5031551;28;20361;-78
2023/03/03 01:30:51;;;;;;;56.85;22.63;;;;;;;;;;5030410;28;20033;-78
2023/03/03 01:33:17;;;;;;;52.17;23.02;;;;;;;;;;5022241;28;20026;-80
2023/03/03 01:35:46;;;;;;;50.33;21.90;;;;;;;;;;5041179;28;20029;-78
2023/03/03 01:38:13;;;;;;;54.67;22.00;;;;;;;;;;5020557;28;20029;-80
2023/03/03 01:40:42;;;;;;;51.78;21.60;;;;;;;;;;5029608;28;20303;-79
2023/03/03 01:43:07;;;;;;;50.53;21.63;;;;;;;;;;5030423;28;20025;-81
2023/03/03 01:45:47;;;;;;;46.67;19.77;;;;;;;;;;5019772;28;20840;-80
2023/03/03 01:48:17;;;;;;;48.08;20.95;;;;;;;;;;5021692;28;20029;-79
2023/03/03 01:50:56;;;;;;;48.58;22.30;;;;;;;;;;5018980;28;20037;-81
2023/03/03 01:53:29;;;;;;;44.92;20.13;;;;;;;;;;5032342;28;20029;-82
2023/03/03 01:55:55;;;;;;;45.72;20.00;;;;;;;;;;5032120;28;20032;-79
2023/03/03 01:58:26;;;;;;;48.13;20.40;;;;;;;;;;5029588;28;20120;-79
2023/03/03 02:01:01;;;;;;;46.75;20.70;;;;;;;;;;5028102;28;20069;-79
2023/03/03 02:03:26;;;;;;;49.35;21.45;;;;;;;;;;5022414;28;20026;-79
2023/03/03 02:05:55;;;;;;;49.33;21.02;;;;;;;;;;5026288;28;20421;-78
2023/03/03 02:08:27;;;;;;;43.33;19.10;;;;;;;;;;5025092;28;20055;-78
2023/03/03 02:10:57;;;;;;;47.42;20.67;;;;;;;;;;5026835;28;20116;-79
2023/03/03 02:13:22;;;;;;;47.60;20.65;;;;;;;;;;5028487;28;20029;-79
2023/03/03 02:15:50;;;;;;;42.55;18.48;;;;;;;;;;5029780;28;20029;-77
2023/03/03 02:18:18;;;;;;;45.47;20.10;;;;;;;;;;5024040;28;20030;-78
2023/03/03 02:20:53;;;;;;;45.47;19.67;;;;;;;;;;5028199;28;20025;-78
2023/03/03 02:23:37;;;;;;;48.15;20.52;;;;;;;;;;5029588;28;20037;-79
2023/03/03 02:26:14;;;;;;;48.92;20.55;;;;;;;;;;5028719;28;20121;-78
2023/03/03 02:28:40;;;;;;;45.63;20.60;;;;;;;;;;5044659;28;20017;-78
2023/03/03 02:31:11;;;;;;;47.35;21.85;;;;;;;;;;5029113;28;20080;-78
2023/03/03 02:33:38;;;;;;;45.35;20.67;;;;;;;;;;5023449;28;20028;-78
2023/03/03 02:36:04;;;;;;;51.90;20.90;;;;;;;;;;5021458;28;20488;-80
2023/03/03 02:38:41;;;;;;;46.00;19.63;;;;;;;;;;5025840;28;20120;-80
2023/03/03 02:41:17;;;;;;;51.92;21.40;;;;;;;;;;5023738;28;20026;-80
2023/03/03 02:44:06;;;;;;;50.20;20.45;;;;;;;;;;5027594;28;20021;-79
2023/03/03 02:46:34;;;;;;;47.10;21.73;;;;;;;;;;5016764;28;20026;-81
2023/03/03 02:49:03;;;;;;;43.67;19.27;;;;;;;;;;5024270;28;20085;-81
2023/03/03 02:51:28;;;;;;;48.72;22.35;;;;;;;;;;5031902;28;20022;-80
2023/03/03 02:53:56;;;;;;;47.47;20.67;;;;;;;;;;5034550;28;20025;-81
2023/03/03 02:56:22;;;;;;;48.28;21.80;;;;;;;;;;5035969;28;20036;-79
2023/03/03 02:58:50;;;;;;;50.92;21.42;;;;;;;;;;5035180;28;20029;-78
2023/03/03 03:01:15;;;;;;;48.45;20.88;;;;;;;;;;5033847;28;20052;-79
2023/03/03 03:03:43;;;;;;;46.92;20.80;;;;;;;;;;5030452;28;20088;-80
2023/03/03 03:06:09;;;;;;;51.67;21.90;;;;;;;;;;5026070;28;20060;-79
2023/03/03 03:08:34;;;;;;;47.28;20.52;;;;;;;;;;5028143;28;20046;-80
2023/03/03 03:11:00;;;;;;;47.00;21.55;;;;;;;;;;5030224;28;20033;-79
2023/03/03 03:13:29;;;;;;;47.95;21.45;;;;;;;;;;5026872;28;20040;-79
2023/03/03 03:15:54;;;;;;;51.60;21.90;;;;;;;;;;5032812;28;20021;-78
2023/03/03 03:18:20;;;;;;;51.63;21.10;;;;;;;;;;5026069;28;20044;-79
2023/03/03 03:20:45;;;;;;;48.85;21.20;;;;;;;;;;5024704;28;20026;-79
2023/03/03 03:23:12;;;;;;;46.75;20.45;;;;;;;;;;5028965;28;20049;-79
2023/03/03 03:25:44;;;;;;;48.83;22.17;;;;;;;;;;5021466;28;20105;-79
2023/03/03 03:28:14;;;;;;;45.53;21.33;;;;;;;;;;5028179;28;20026;-79
2023/03/03 03:30:40;;;;;;;48.80;20.85;;;;;;;;;;5031101;28;20044;-80
2023/03/03 03:33:06;;;;;;;50.17;22.15;;;;;;;;;;5022127;28;20104;-79
2023/03/03 03:35:33;;;;;;;49.70;21.20;;;;;;;;;;5021642;28;20516;-79
2023/03/03 03:37:59;;;;;;;48.75;22.00;;;;;;;;;;5029022;28;20021;-79
2023/03/03 03:40:25;;;;;;;50.72;22.35;;;;;;;;;;5029204;28;20022;-79
2023/03/03 03:42:51;;;;;;;50.47;23.10;;;;;;;;;;5026709;28;20021;-79
2023/03/03 03:45:19;;;;;;;52.28;22.27;;;;;;;;;;5029473;28;20022;-78
2023/03/03 03:47:44;;;;;;;50.10;21.90;;;;;;;;;;5032379;28;20014;-80
2023/03/03 03:50:10;;;;;;;51.88;21.88;;;;;;;;;;5030998;28;20040;-79
2023/03/03 03:52:36;;;;;;;50.08;21.42;;;;;;;;;;5028817;28;20027;-80
2023/03/03 03:55:02;;;;;;;47.83;21.10;;;;;;;;;;5034738;28;20041;-80
2023/03/03 03:57:27;;;;;;;45.95;20.95;;;;;;;;;;5032639;28;20116;-78
2023/03/03 03:59:53;;;;;;;50.03;21.50;;;;;;;;;;5031586;28;20116;-78
2023/03/03 04:02:18;;;;;;;50.45;22.23;;;;;;;;;;5045290;28;20018;-80
2023/03/03 04:04:44;;;;;;;51.67;23.38;;;;;;;;;;5038115;28;20108;-81
2023/03/03 04:07:09;;;;;;;58.65;24.77;;;;;;;;;;5033975;28;20117;-82
2023/03/03 04:09:34;;;;;;;51.30;21.98;;;;;;;;;;5032515;28;20025;-78
2023/03/03 04:12:02;;;;;;;51.65;22.58;;;;;;;;;;5031199;28;20025;-80
2023/03/03 04:14:28;;;;;;;51.63;22.55;;;;;;;;;;5032418;28;20022;-81
2023/03/03 04:16:56;;;;;;;53.33;23.00;;;;;;;;;;5031042;28;20026;-80
2023/03/03 04:19:22;;;;;;;52.50;22.55;;;;;;;;;;5030986;28;20037;-79
2023/03/03 04:21:50;;;;;;;48.78;21.15;;;;;;;;;;5031112;28;20037;-78
2023/03/03 04:24:15;;;;;;;53.42;22.27;;;;;;;;;;5032364;28;20151;-79
2023/03/03 04:26:41;;;;;;;51.88;22.58;;;;;;;;;;5033460;28;20064;-78
2023/03/03 04:29:06;;;;;;;50.35;21.42;;;;;;;;;;5032485;28;20029;-79
2023/03/03 04:31:32;;;;;;;54.05;22.63;;;;;;;;;;5032374;28;20028;-80
2023/03/03 04:33:57;;;;;;;52.60;21.63;;;;;;;;;;5024430;28;20561;-79
2023/03/03 04:36:25;;;;;;;45.20;20.52;;;;;;;;;;5033262;28;20557;-80
2023/03/03 04:38:51;;;;;;;54.20;22.48;;;;;;;;;;5033052;28;20044;-80
2023/03/03 04:41:16;;;;;;;53.55;23.00;;;;;;;;;;5023932;28;20140;-79
2023/03/03 04:43:42;;;;;;;53.55;24.00;;;;;;;;;;5021483;28;20026;-79
2023/03/03 04:46:07;;;;;;;52.70;22.92;;;;;;;;;;5028259;28;20029;-80
2023/03/03 04:48:33;;;;;;;56.20;22.35;;;;;;;;;;5031355;28;20032;-80
2023/03/03 04:50:58;;;;;;;54.58;21.33;;;;;;;;;;5031915;28;20522;-79
2023/03/03 04:53:24;;;;;;;53.08;22.63;;;;;;;;;;5033674;28;20503;-80
2023/03/03 04:55:50;;;;;;;53.53;22.75;;;;;;;;;;5031793;28;20079;-80
2023/03/03 04:58:19;;;;;;;56.10;22.20;;;;;;;;;;5033346;28;20034;-80
2023/03/03 05:00:57;;;;;;;56.70;22.55;;;;;;;;;;5024128;28;20079;-80
2023/03/03 05:03:23;;;;;;;58.83;23.58;;;;;;;;;;5037439;28;20148;-81
2023/03/03 05:05:49;;;;;;;60.85;24.13;;;;;;;;;;5033883;28;20033;-82
2023/03/03 05:08:14;;;;;;;64.15;25.77;;;;;;;;;;5032560;28;20052;-82
2023/03/03 05:10:39;;;;;;;60.15;24.58;;;;;;;;;;5032929;28;20112;-80
2023/03/03 05:13:05;;;;;;;62.30;25.33;;;;;;;;;;5033999;28;20033;-80
2023/03/03 05:15:31;;;;;;;69.47;26.55;;;;;;;;;;5026483;28;20101;-79
2023/03/03 05:17:57;;;;;;;61.25;25.13;;;;;;;;;;5033358;28;20033;-79
2023/03/03 05:20:23;;;;;;;60.28;25.52;;;;;;;;;;5025312;28;20032;-79
2023/03/03 05:22:51;;;;;;;64.70;24.50;;;;;;;;;;5031481;28;20025;-79
2023/03/03 05:25:17;;;;;;;68.07;26.52;;;;;;;;;;5029212;28;20420;-79
2023/03/03 05:27:42;;;;;;;64.25;25.85;;;;;;;;;;5030602;28;20028;-77
2023/03/03 05:30:09;;;;;;;65.47;26.80;;;;;;;;;;5026715;28;20025;-78
2023/03/03 05:32:35;;;;;;;68.38;27.27;;;;;;;;;;5025902;28;20025;-78
2023/03/03 05:35:00;;;;;;;71.03;27.05;;;;;;;;;;5028649;28;20507;-77
2023/03/03 05:37:26;;;;;;;66.65;27.45;;;;;;;;;;5026902;28;20036;-77
2023/03/03 05:39:52;;;;;;;65.80;26.13;;;;;;;;;;5028090;28;20044;-77
2023/03/03 05:42:18;;;;;;;64.55;26.60;;;;;;;;;;5027504;28;20087;-79
2023/03/03 05:44:43;;;;;;;70.18;27.58;;;;;;;;;;5018043;28;20432;-78
2023/03/03 05:47:09;;;;;;;72.72;27.88;;;;;;;;;;5021901;28;20056;-78
2023/03/03 05:49:34;;;;;;;71.65;28.05;;;;;;;;;;5028461;28;20075;-78
2023/03/03 05:52:00;;;;;;;72.38;27.55;;;;;;;;;;5026765;28;20108;-78
2023/03/03 05:54:25;;;;;;;81.07;29.55;;;;;;;;;;5029702;28;20034;-80
2023/03/03 05:56:53;;;;;;;74.35;28.27;;;;;;;;;;5029083;28;20071;-79
2023/03/03 05:59:19;;;;;;;77.22;28.65;;;;;;;;;;5026048;28;20028;-78
2023/03/03 06:01:44;;;;;;;75.63;27.40;;;;;;;;;;5018930;28;20018;-80
2023/03/03 06:04:10;;;;;;;75.15;28.45;;;;;;;;;;5030552;28;20392;-80
2023/03/03 06:06:38;;;;;;;71.75;26.23;;;;;;;;;;5032953;28;20031;-79
2023/03/03 06:09:08;;;;;;;40.28;15.88;;;;;;;;;;5029695;28;20033;-77
2023/03/03 06:11:33;;;;;;;45.03;18.40;;;;;;;;;;5027735;28;20077;-78
2023/03/03 06:13:58;;;;;;;62.88;23.73;;;;;;;;;;5031201;28;20029;-78
2023/03/03 06:16:24;;;;;;;58.85;20.08;;;;;;;;;;5035054;28;20104;-78
2023/03/03 06:18:49;;;;;;;67.15;24.02;;;;;;;;;;5031593;28;20033;-77
2023/03/03 06:21:15;;;;;;;85.82;31.08;;;;;;;;;;5029955;28;20088;-77
2023/03/03 06:23:42;;;;;;;100.45;31.48;;;;;;;;;;5024075;28;20029;-77
2023/03/03 06:26:08;;;;;;;105.65;33.45;;;;;;;;;;5032682;28;20491;-77
2023/03/03 06:28:33;;;;;;;98.60;32.97;;;;;;;;;;5028216;28;20025;-79
2023/03/03 06:30:59;;;;;;;106.28;36.08;;;;;;;;;;5031537;28;20075;-77
2023/03/03 06:33:27;;;;;;;119.93;37.88;;;;;;;;;;5027827;28;20054;-78
2023/03/03 06:35:53;;;;;;;118.85;37.97;;;;;;;;;;5023262;28;20065;-76
2023/03/03 06:38:19;;;;;;;119.63;37.90;;;;;;;;;;5032387;28;20075;-77
2023/03/03 06:40:47;;;;;;;126.55;37.80;;;;;;;;;;5018302;28;20021;-78
2023/03/03 06:43:16;;;;;;;118.63;36.53;;;;;;;;;;5020217;28;20045;-77
2023/03/03 06:45:44;;;;;;;110.95;37.30;;;;;;;;;;5029510;28;20033;-78
2023/03/03 06:48:12;;;;;;;114.32;37.78;;;;;;;;;;5028938;28;20014;-78
2023/03/03 06:50:41;;;;;;;115.30;36.28;;;;;;;;;;5025897;28;20029;-77
2023/03/03 06:53:14;;;;;;;122.97;36.60;;;;;;;;;;5020639;28;20038;-77
2023/03/03 06:55:39;;;;;;;119.97;39.60;;;;;;;;;;5033261;28;20025;-79
2023/03/03 06:58:13;;;;;;;125.38;39.33;;;;;;;;;;5034131;28;20343;-79
2023/03/03 07:00:45;;;;;;;113.57;38.30;;;;;;;;;;5023438;28;20022;-80
2023/03/03 07:03:18;;;;;;;117.57;38.53;;;;;;;;;;5027432;28;20037;-80
2023/03/03 07:05:44;;;;;;;127.55;39.58;;;;;;;;;;5031163;28;20083;-80
2023/03/03 07:08:19;;;;;;;124.45;39.17;;;;;;;;;;5032226;28;20017;-80
2023/03/03 07:10:48;;;;;;;127.57;40.40;;;;;;;;;;5027894;28;20021;-79
2023/03/03 07:13:22;;;;;;;138.73;43.03;;;;;;;;;;5025538;28;20029;-79
2023/03/03 07:15:52;;;;;;;136.98;44.20;;;;;;;;;;5032402;28;20056;-80
2023/03/03 07:18:38;;;;;;;135.82;40.70;;;;;;;;;;5027227;28;20381;-79
2023/03/03 07:21:18;;;;;;;139.60;42.97;;;;;;;;;;5027521;28;20051;-80
2023/03/03 07:23:48;;;;;;;140.10;42.90;;;;;;;;;;5028479;28;20063;-78
2023/03/03 07:26:42;;;;;;;123.57;40.75;;;;;;;;;;5030916;28;20453;-79
2023/03/03 07:29:27;;;;;;;139.70;41.63;;;;;;;;;;5030962;28;20392;-79
2023/03/03 07:31:56;;;;;;;131.50;41.50;;;;;;;;;;5026457;28;20037;-78
2023/03/03 07:34:23;;;;;;;125.15;40.70;;;;;;;;;;5042963;28;20018;-78
2023/03/03 07:36:54;;;;;;;130.00;40.25;;;;;;;;;;5028245;28;20060;-78
2023/03/03 07:39:37;;;;;;;131.30;41.47;;;;;;;;;;5025425;28;20037;-76
2023/03/03 07:42:08;;;;;;;139.20;43.65;;;;;;;;;;5025615;28;20038;-77
2023/03/03 07:44:37;;;;;;;129.50;42.25;;;;;;;;;;5020942;28;20061;-77
2023/03/03 07:47:19;;;;;;;133.48;42.58;;;;;;;;;;5025153;28;20030;-76
2023/03/03 07:49:47;;;;;;;129.52;41.45;;;;;;;;;;5021429;28;20025;-77
2023/03/03 07:52:40;;;;;;;120.32;38.88;;;;;;;;;;5028500;28;20025;-78
2023/03/03 07:55:35;;;;;;;116.03;38.30;;;;;;;;;;5027523;28;20028;-77
2023/03/03 07:58:26;;;;;;;120.13;39.53;;;;;;;;;;5020515;28;20064;-77
2023/03/03 08:01:20;;;;;;;123.55;37.45;;;;;;;;;;5023890;28;20075;-78
2023/03/03 08:03:48;;;;;;;130.50;39.95;;;;;;;;;;5017541;28;20022;-78
2023/03/03 08:06:35;;;;;;;131.15;40.10;;;;;;;;;;5021250;28;20053;-77
2023/03/03 08:09:09;;;;;;;117.30;39.80;;;;;;;;;;5015908;28;20036;-76
2023/03/03 08:11:46;;;;;;;120.65;38.03;;;;;;;;;;5025954;28;20037;-78
2023/03/03 08:14:15;;;;;;;113.68;37.20;;;;;;;;;;5025837;28;20031;-77
2023/03/03 08:16:40;;;;;;;123.88;38.78;;;;;;;;;;5026440;28;20025;-76
2023/03/03 08:19:06;;;;;;;119.00;38.20;;;;;;;;;;5018114;28;20026;-76
2023/03/03 08:21:34;;;;;;;106.45;36.25;;;;;;;;;;5026377;28;20033;-76
2023/03/03 08:23:59;;;;;;;117.25;40.05;;;;;;;;;;5026401;28;20033;-77
2023/03/03 08:26:25;;;;;;;124.35;38.55;;;;;;;;;;5026843;28;20514;-77
2023/03/03 08:28:52;;;;;;;116.38;38.03;;;;;;;;;;5026266;28;20026;-78
2023/03/03 08:31:18;;;;;;;120.88;37.15;;;;;;;;;;5027896;28;20439;-75
2023/03/03 08:33:46;;;;;;;118.53;37.80;;;;;;;;;;5025094;28;20050;-75
2023/03/03 08:36:14;;;;;;;104.55;34.58;;;;;;;;;;5019185;28;20029;-77
2023/03/03 08:38:42;;;;;;;98.57;32.95;;;;;;;;;;5039422;28;20065;-75
2023/03/03 08:41:08;;;;;;;109.97;37.75;;;;;;;;;;5021145;28;20033;-76
2023/03/03 08:43:36;;;;;;;107.90;36.00;;;;;;;;;;5020895;28;20472;-75
2023/03/03 08:46:04;;;;;;;103.93;36.22;;;;;;;;;;5023553;28;20033;-75
2023/03/03 08:48:31;;;;;;;105.78;37.65;;;;;;;;;;5019451;28;20044;-75
2023/03/03 08:50:57;;;;;;;106.25;35.78;;;;;;;;;;5019649;28;20033;-77
2023/03/03 08:53:23;;;;;;;97.38;32.92;;;;;;;;;;5018383;28;20041;-75
2023/03/03 08:55:49;;;;;;;111.35;36.53;;;;;;;;;;5023272;28;20033;-75
2023/03/03 08:58:17;;;;;;;104.78;34.78;;;;;;;;;;5022084;28;20029;-77
2023/03/03 09:00:42;;;;;;;114.50;37.97;;;;;;;;;;5019975;28;20056;-76
2023/03/03 09:03:10;;;;;;;98.10;33.72;;;;;;;;;;5016737;28;20079;-77
2023/03/03 09:05:37;;;;;;;114.00;36.70;;;;;;;;;;5020613;28;20026;-77
2023/03/03 09:08:03;;;;;;;103.10;36.92;;;;;;;;;;5022467;28;20950;-77
2023/03/03 09:10:31;;;;;;;103.90;35.78;;;;;;;;;;5019865;28;20057;-76
2023/03/03 09:13:06;;;;;;;77.57;29.10;;;;;;;;;;5019939;28;20041;-76
2023/03/03 09:15:33;;;;;;;100.15;34.50;;;;;;;;;;5022557;28;20029;-77
2023/03/03 09:18:15;;;;;;;103.65;35.05;;;;;;;;;;5018282;28;20033;-77
2023/03/03 09:20:52;;;;;;;103.38;35.67;;;;;;;;;;5019748;28;20036;-77
2023/03/03 09:23:38;;;;;;;108.03;36.83;;;;;;;;;;5018782;28;20056;-76
2023/03/03 09:29:22;;;;;;;108.85;38.28;;;;;;;;;;5021051;28;20013;-76
2023/03/03 09:31:50;;;;;;;113.45;37.33;;;;;;;;;;5024441;28;20183;-76
2023/03/03 09:34:35;;;;;;;100.03;35.78;;;;;;;;;;5016898;28;20033;-75
2023/03/03 09:37:23;;;;;;;104.25;35.95;;;;;;;;;;5018459;28;20025;-76
2023/03/03 09:39:51;;;;;;;88.85;31.90;;;;;;;;;;5021124;28;20400;-76
2023/03/03 09:42:16;;;;;;;105.03;34.95;;;;;;;;;;5022073;28;20033;-76
2023/03/03 09:44:48;;;;;;;99.28;36.35;;;;;;;;;;5021987;28;20029;-77
2023/03/03 09:47:26;;;;;;;103.35;35.45;;;;;;;;;;5020623;28;20018;-75
2023/03/03 09:50:13;;;;;;;107.70;37.67;;;;;;;;;;5026938;28;20033;-77
2023/03/03 09:53:01;;;;;;;100.55;37.10;;;;;;;;;;5027928;28;20076;-76
2023/03/03 09:55:48;;;;;;;108.10;37.83;;;;;;;;;;5019256;28;20034;-76
2023/03/03 09:58:31;;;;;;;107.25;37.03;;;;;;;;;;5024334;28;20539;-76
2023/03/03 10:01:34;;;;;;;97.75;33.75;;;;;;;;;;5022497;28;20041;-75
2023/03/03 10:03:59;;;;;;;96.60;34.95;;;;;;;;;;5025963;28;20021;-75
2023/03/03 10:06:33;;;;;;;96.15;34.65;;;;;;;;;;5025765;28;20805;-75
2023/03/03 10:09:20;;;;;;;92.47;33.22;;;;;;;;;;5024261;28;20022;-75
2023/03/03 10:12:00;;;;;;;100.68;34.80;;;;;;;;;;5025884;28;20446;-75
2023/03/03 10:14:29;;;;;;;97.22;35.20;;;;;;;;;;5025660;28;20033;-75
2023/03/03 10:16:55;;;;;;;98.05;34.72;;;;;;;;;;5026386;28;20461;-74
2023/03/03 10:19:37;;;;;;;97.68;34.40;;;;;;;;;;5024272;28;20026;-76
2023/03/03 10:22:36;;;;;;;101.18;36.15;;;;;;;;;;5026418;28;20055;-76
2023/03/03 10:25:07;;;;;;;91.22;33.65;;;;;;;;;;5023519;28;20037;-75
2023/03/03 10:27:50;;;;;;;97.60;34.33;;;;;;;;;;5029623;28;20032;-75
2023/03/03 10:30:27;;;;;;;93.40;34.85;;;;;;;;;;5019610;28;20093;-77
2023/03/03 10:33:02;;;;;;;104.43;35.40;;;;;;;;;;5022559;28;20397;-76
2023/03/03 10:35:50;;;;;;;95.63;36.05;;;;;;;;;;5020187;28;20029;-75
2023/03/03 10:38:23;;;;;;;100.40;36.60;;;;;;;;;;5023364;28;20124;-76
2023/03/03 10:41:11;;;;;;;99.18;36.20;;;;;;;;;;5027154;28;20029;-77
2023/03/03 10:43:55;;;;;;;94.63;37.25;;;;;;;;;;5029613;28;20033;-77
2023/03/03 10:46:57;;;;;;;87.40;35.58;;;;;;;;;;5023784;28;20033;-77
2023/03/03 10:49:25;;;;;;;89.10;34.85;;;;;;;;;;5021992;28;20037;-77
2023/03/03 10:52:02;;;;;;;91.63;34.75;;;;;;;;;;5024153;28;20030;-78
2023/03/03 10:54:50;;;;;;;93.78;35.67;;;;;;;;;;5021523;28;20030;-77
2023/03/03 10:57:51;;;;;;;89.38;35.13;;;;;;;;;;5015592;28;20034;-76
2023/03/03 11:00:22;;;;;;;87.47;35.15;;;;;;;;;;5024956;28;20040;-77
2023/03/03 11:02:52;;;;;;;93.55;33.65;;;;;;;;;;5025565;28;20404;-77
2023/03/03 11:05:35;;;;;;;98.18;35.83;;;;;;;;;;5028102;28;20025;-75
2023/03/03 11:08:10;;;;;;;92.00;35.97;;;;;;;;;;5019347;28;20025;-76
2023/03/03 11:10:47;;;;;;;96.78;36.35;;;;;;;;;;5023941;28;20064;-77
2023/03/03 11:13:30;;;;;;;88.65;34.97;;;;;;;;;;5022343;28;20030;-77
2023/03/03 11:16:04;;;;;;;97.25;35.90;;;;;;;;;;5028832;28;20048;-77
2023/03/03 11:18:30;;;;;;;89.38;37.42;;;;;;;;;;5020919;28;20048;-77
2023/03/03 11:21:01;;;;;;;96.38;39.00;;;;;;;;;;5028264;28;20025;-76
2023/03/03 11:24:14;;;;;;;88.55;35.90;;;;;;;;;;5027659;28;20060;-76
2023/03/03 11:26:53;;;;;;;87.70;35.75;;;;;;;;;;5026133;28;20027;-76
2023/03/03 11:29:28;;;;;;;93.13;35.63;;;;;;;;;;5029675;28;20075;-76
2023/03/03 11:32:23;;;;;;;99.32;37.00;;;;;;;;;;5023673;28;20030;-76
2023/03/03 11:35:22;;;;;;;84.18;33.33;;;;;;;;;;5019807;28;20042;-75
2023/03/03 11:38:16;;;;;;;93.38;36.72;;;;;;;;;;5031130;28;20037;-75
2023/03/03 11:40:52;;;;;;;101.85;37.38;;;;;;;;;;5018837;28;20159;-77
2023/03/03 11:43:31;;;;;;;90.13;36.03;;;;;;;;;;5023109;28;20024;-76
2023/03/03 11:46:28;;;;;;;103.60;39.72;;;;;;;;;;5029047;28;20044;-76
2023/03/03 11:48:59;;;;;;;102.75;37.33;;;;;;;;;;5025362;28;20040;-76
2023/03/03 11:52:12;;;;;;;92.68;37.35;;;;;;;;;;5024276;28;20025;-76
2023/03/03 11:54:47;;;;;;;84.97;35.85;;;;;;;;;;5018702;28;20038;-76
2023/03/03 11:57:59;;;;;;;91.05;35.78;;;;;;;;;;5025843;28;20035;-76
2023/03/03 12:00:51;;;;;;;90.97;38.92;;;;;;;;;;5030728;28;20048;-77
2023/03/03 12:03:41;;;;;;;94.75;39.05;;;;;;;;;;5025866;28;20029;-75
2023/03/03 12:06:24;;;;;;;94.07;38.47;;;;;;;;;;5030848;28;20025;-77
2023/03/03 12:09:13;;;;;;;101.68;39.13;;;;;;;;;;5027576;28;20046;-77
2023/03/03 12:11:52;;;;;;;102.78;40.80;;;;;;;;;;5014082;28;20162;-75
2023/03/03 12:14:55;;;;;;;94.03;39.38;;;;;;;;;;5024605;28;20060;-77
2023/03/03 12:17:57;;;;;;;95.22;37.83;;;;;;;;;;5027524;28;20117;-75
2023/03/03 12:20:40;;;;;;;94.15;39.33;;;;;;;;;;5015953;28;20939;-76
2023/03/03 12:23:24;;;;;;;94.90;40.90;;;;;;;;;;5022174;28;20477;-75
2023/03/03 12:26:04;;;;;;;97.18;39.10;;;;;;;;;;5021883;28;20036;-77
2023/03/03 12:29:07;;;;;;;93.05;36.95;;;;;;;;;;5022957;28;20018;-76
2023/03/03 12:31:55;;;;;;;90.57;38.90;;;;;;;;;;5027379;28;20036;-76
2023/03/03 12:34:50;;;;;;;89.40;36.35;;;;;;;;;;5021333;28;20116;-75
2023/03/03 12:37:41;;;;;;;101.78;40.08;;;;;;;;;;5020608;28;20018;-75
2023/03/03 12:40:07;;;;;;;101.18;40.47;;;;;;;;;;5026553;28;20029;-77
2023/03/03 12:43:00;;;;;;;86.63;37.50;;;;;;;;;;5028335;28;20388;-78
2023/03/03 12:45:38;;;;;;;91.88;39.75;;;;;;;;;;5021547;28;20499;-77
2023/03/03 12:48:20;;;;;;;101.40;42.08;;;;;;;;;;5023641;28;20393;-78
2023/03/03 12:51:17;;;;;;;112.38;44.25;;;;;;;;;;5019219;28;20033;-77
2023/03/03 12:54:10;;;;;;;105.82;42.55;;;;;;;;;;5021294;28;20038;-78
2023/03/03 12:56:50;;;;;;;92.38;35.85;;;;;;;;;;5023093;28;20021;-77
2023/03/03 12:59:35;;;;;;;89.53;36.90;;;;;;;;;;5020631;28;20037;-78
2023/03/03 13:02:38;;;;;;;85.63;37.03;;;;;;;;;;5023664;28;20030;-78
2023/03/03 13:05:22;;;;;;;84.22;38.65;;;;;;;;;;5028628;28;20365;-77
2023/03/03 13:08:15;;;;;;;90.97;39.42;;;;;;;;;;5021856;28;20030;-79
2023/03/03 13:11:02;;;;;;;90.82;38.97;;;;;;;;;;5025311;28;20052;-77
2023/03/03 13:13:40;;;;;;;87.18;37.70;;;;;;;;;;5022744;28;20400;-78
2023/03/03 13:16:20;;;;;;;88.50;37.08;;;;;;;;;;5023947;28;20072;-78
2023/03/03 13:19:00;;;;;;;83.10;37.28;;;;;;;;;;5022730;28;20036;-79
2023/03/03 13:21:52;;;;;;;88.68;37.13;;;;;;;;;;5022267;28;20051;-79
2023/03/03 13:24:40;;;;;;;86.40;36.35;;;;;;;;;;5023267;28;20119;-79
2023/03/03 13:27:12;;;;;;;90.63;36.78;;;;;;;;;;5022501;28;20040;-79
2023/03/03 13:29:51;;;;;;;83.00;38.20;;;;;;;;;;5032701;28;20617;-78
2023/03/03 13:32:20;;;;;;;;;;;;;;;;;;5021379;28;20033;-79
2023/03/03 13:34:59;;;;;;;79.65;34.90;;;;;;;;;;5018831;28;20403;-78
2023/03/03 13:37:48;;;;;;;88.93;38.00;;;;;;;;;;5021260;28;20380;-78
2023/03/03 13:40:23;;;;;;;77.85;34.75;;;;;;;;;;5019158;28;20329;-77
2023/03/03 13:43:13;;;;;;;84.38;36.10;;;;;;;;;;5018128;28;20463;-78
2023/03/03 13:45:54;;;;;;;76.78;34.83;;;;;;;;;;5041000;28;20064;-78
2023/03/03 13:48:48;;;;;;;85.32;38.55;;;;;;;;;;5021697;28;20060;-79
2023/03/03 13:51:16;;;;;;;80.93;36.88;;;;;;;;;;5020148;28;20476;-78
2023/03/03 13:54:26;;;;;;;75.40;34.25;;;;;;;;;;5018856;28;20052;-78
2023/03/03 13:57:24;;;;;;;81.90;36.03;;;;;;;;;;5021666;28;20029;-78
2023/03/03 14:00:10;;;;;;;45.60;21.23;;;;;;;;;;5016528;28;20136;-77
2023/03/03 14:02:48;;;;;;;79.47;36.05;;;;;;;;;;5017937;28;20079;-76
2023/03/03 14:05:30;;;;;;;78.57;36.55;;;;;;;;;;5020457;28;20022;-79
2023/03/03 14:08:22;;;;;;;74.53;35.45;;;;;;;;;;5021994;28;20029;-78
2023/03/03 14:10:59;;;;;;;80.50;34.67;;;;;;;;;;5017772;28;20044;-79
2023/03/03 14:13:57;;;;;;;76.45;36.13;;;;;;;;;;5021909;28;20112;-79
2023/03/03 14:16:34;;;;;;;68.20;32.78;;;;;;;;;;5035598;28;20054;-79
2023/03/03 14:19:19;;;;;;;102.55;41.60;;;;;;;;;;5024182;28;20030;-79
2023/03/03 14:21:57;;;;;;;72.95;35.15;;;;;;;;;;5026069;28;20029;-79
2023/03/03 14:24:25;;;;;;;78.80;34.92;;;;;;;;;;5022690;28;20048;-79
2023/03/03 14:26:59;;;;;;;74.68;35.78;;;;;;;;;;5019875;28;20032;-79
2023/03/03 14:29:25;;;;;;;73.50;35.80;;;;;;;;;;5026848;28;20518;-78
2023/03/03 14:31:51;;;;;;;38.30;18.77;;;;;;;;;;5020774;28;20033;-78
2023/03/03 14:34:22;;;;;;;72.28;30.10;;;;;;;;;;5024175;28;20056;-79
2023/03/03 14:36:56;;;;;;;78.60;36.78;;;;;;;;;;5034049;28;20038;-79
2023/03/03 14:39:29;;;;;;;74.50;35.47;;;;;;;;;;5028646;28;20033;-80
2023/03/03 14:42:50;;;;;;;74.30;34.35;;;;;;;;;;5021942;28;20044;-81
2023/03/03 14:45:40;;;;;;;91.75;40.00;;;;;;;;;;5020487;28;20021;-77
2023/03/03 14:48:18;;;;;;;79.28;37.33;;;;;;;;;;5022144;28;20022;-77
2023/03/03 14:50:52;;;;;;;76.07;34.47;;;;;;;;;;5019963;28;20031;-77
2023/03/03 14:53:18;;;;;;;71.90;35.00;;;;;;;;;;5027059;28;20106;-75
2023/03/03 14:55:50;;;;;;;70.28;35.17;;;;;;;;;;5024978;28;20053;-77